createdAt,value
2019-02-18T00:00:07.459Z,-1.3
2019-02-18T00:00:57.506Z,-1.3
2019-02-18T00:01:47.900Z,-1.3
2019-02-18T00:02:37.618Z,-1.4
2019-02-18T00:03:28.018Z,-1.3
2019-02-18T00:04:18.028Z,-1.4
2019-02-18T00:05:07.868Z,-1.4
2019-02-18T00:05:58.115Z,-1.4
2019-02-18T00:06:48.185Z,-1.4
2019-02-18T00:07:37.713Z,-1.4
2019-02-18T00:08:28.038Z,-1.4
2019-02-18T00:09:17.814Z,-1.4
2019-02-18T00:10:07.971Z,-1.5
2019-02-18T00:10:57.720Z,-1.5
2019-02-18T00:11:47.770Z,-1.5
2019-02-18T00:12:38.101Z,-1.5
2019-02-18T00:13:28.384Z,-1.6
2019-02-18T00:14:18.698Z,-1.6
2019-02-18T00:15:08.850Z,-1.6
2019-02-18T00:15:58.565Z,-1.6
2019-02-18T00:16:48.603Z,-1.6
2019-02-18T00:17:38.658Z,-1.6
2019-02-18T00:18:28.733Z,-1.6
2019-02-18T00:19:18.787Z,-1.6
2019-02-18T00:20:08.578Z,-1.7
2019-02-18T00:20:58.953Z,-1.7
2019-02-18T00:21:49.217Z,-1.7
2019-02-18T00:22:39.286Z,-1.7
2019-02-18T00:23:29.081Z,-1.7
2019-02-18T00:24:19.410Z,-1.7
2019-02-18T00:25:09.181Z,-1.8
2019-02-18T00:25:58.979Z,-1.8
2019-02-18T00:26:49.009Z,-1.8
2019-02-18T00:27:39.629Z,-1.8
2019-02-18T00:28:29.682Z,-1.8
2019-02-18T00:29:19.202Z,-1.8
2019-02-18T00:30:09.282Z,-1.8
2019-02-18T00:30:59.304Z,-1.8
2019-02-18T00:31:49.632Z,-1.9
2019-02-18T00:32:39.981Z,-1.9
2019-02-18T00:33:29.764Z,-1.9
2019-02-18T00:34:20.087Z,-1.9
2019-02-18T00:35:09.896Z,-1.9
2019-02-18T00:36:00.204Z,-1.9
2019-02-18T00:36:50.264Z,-1.9
2019-02-18T00:37:40.309Z,-1.9
2019-02-18T00:38:30.383Z,-1.9
2019-02-18T00:39:20.433Z,-1.9
2019-02-18T00:40:10.521Z,-1.9
2019-02-18T00:41:00.306Z,-1.9
2019-02-18T00:41:51.061Z,-1.9
2019-02-18T00:42:40.398Z,-1.9
2019-02-18T00:43:30.731Z,-1.9
2019-02-18T00:44:20.789Z,-1.9
2019-02-18T00:45:10.849Z,-1.9
2019-02-18T00:46:00.891Z,-1.9
2019-02-18T00:46:50.685Z,-1.9
2019-02-18T00:47:40.752Z,-1.9
2019-02-18T00:48:31.086Z,-1.9
2019-02-18T00:49:20.866Z,-1.9
2019-02-18T00:50:10.917Z,-1.9
2019-02-18T00:51:00.958Z,-1.9
2019-02-18T00:51:50.752Z,-1.9
2019-02-18T00:52:41.353Z,-2
2019-02-18T00:53:31.473Z,-2
2019-02-18T00:54:21.214Z,-2
2019-02-18T00:55:10.992Z,-2
2019-02-18T00:56:01.048Z,-2.1
2019-02-18T00:56:51.646Z,-2.1
2019-02-18T00:57:41.725Z,-2.1
2019-02-18T00:58:31.773Z,-2.1
2019-02-18T00:59:21.345Z,-2.1
2019-02-18T01:00:11.623Z,-2.1
2019-02-18T01:01:01.965Z,-2.1
2019-02-18T01:01:52.060Z,-2.1
2019-02-18T01:02:41.494Z,-2.1
2019-02-18T01:03:32.100Z,-2.2
2019-02-18T01:04:22.174Z,-2.2
2019-02-18T01:05:12.020Z,-2.2
2019-02-18T01:06:01.781Z,-2.2
2019-02-18T01:06:52.063Z,-2.2
2019-02-18T01:07:42.137Z,-2.2
2019-02-18T01:08:32.197Z,-2.2
2019-02-18T01:09:22.235Z,-2.2
2019-02-18T01:10:12.577Z,-2.2
2019-02-18T01:11:02.454Z,-2.2
2019-02-18T01:11:52.694Z,-2.3
2019-02-18T01:12:42.464Z,-2.3
2019-02-18T01:13:32.516Z,-2.3
2019-02-18T01:14:22.864Z,-2.3
2019-02-18T01:15:12.945Z,-2.3
2019-02-18T01:16:03.015Z,-2.3
2019-02-18T01:16:52.767Z,-2.3
2019-02-18T01:17:43.097Z,-2.3
2019-02-18T01:18:33.164Z,-2.4
2019-02-18T01:19:23.203Z,-2.4
2019-02-18T01:20:13.029Z,-2.4
2019-02-18T01:21:03.316Z,-2.4
2019-02-18T01:21:53.092Z,-2.4
2019-02-18T01:22:43.601Z,-2.4
2019-02-18T01:23:33.562Z,-2.4
2019-02-18T01:24:23.281Z,-2.4
2019-02-18T01:25:13.399Z,-2.4
2019-02-18T01:26:03.661Z,-2.4
2019-02-18T01:26:53.734Z,-2.4
2019-02-18T01:27:43.538Z,-2.4
2019-02-18T01:28:33.601Z,-2.4
2019-02-18T01:29:23.896Z,-2.4
2019-02-18T01:30:13.686Z,-2.4
2019-02-18T01:31:03.795Z,-2.5
2019-02-18T01:31:53.802Z,-2.5
2019-02-18T01:32:44.126Z,-2.5
2019-02-18T01:33:33.893Z,-2.5
2019-02-18T01:34:24.250Z,-2.5
2019-02-18T01:35:14.025Z,-2.6
2019-02-18T01:36:04.388Z,-2.6
2019-02-18T01:36:54.138Z,-2.6
2019-02-18T01:37:48.000Z,-2.6
2019-02-18T01:38:34.540Z,-2.6
2019-02-18T01:39:24.597Z,-2.6
2019-02-18T01:40:14.439Z,-2.6
2019-02-18T01:41:04.750Z,-2.6
2019-02-18T01:41:54.760Z,-2.7
2019-02-18T01:42:44.837Z,-2.7
2019-02-18T01:43:34.047Z,-2.7
2019-02-18T01:44:24.682Z,-2.7
2019-02-18T01:45:14.725Z,-2.8
2019-02-18T01:46:05.060Z,-2.8
2019-02-18T01:46:55.099Z,-2.8
2019-02-18T01:47:45.162Z,-2.8
2019-02-18T01:48:35.270Z,-2.8
2019-02-18T01:49:24.775Z,-2.8
2019-02-18T01:50:15.406Z,-2.8
2019-02-18T01:51:05.134Z,-2.8
2019-02-18T01:51:54.901Z,-2.8
2019-02-18T01:52:45.270Z,-2.8
2019-02-18T01:53:35.297Z,-2.8
2019-02-18T01:54:25.355Z,-2.8
2019-02-18T01:55:15.429Z,-2.8
2019-02-18T01:56:05.744Z,-2.8
2019-02-18T01:56:55.789Z,-2.9
2019-02-18T01:57:45.857Z,-2.9
2019-02-18T01:58:35.913Z,-2.9
2019-02-18T01:59:25.974Z,-2.9
2019-02-18T02:00:15.512Z,-2.9
2019-02-18T02:01:05.806Z,-2.9
2019-02-18T02:01:56.146Z,-2.9
2019-02-18T02:02:45.760Z,-2.9
2019-02-18T02:03:36.314Z,-2.9
2019-02-18T02:04:26.049Z,-3
2019-02-18T02:05:16.148Z,-3
2019-02-18T02:06:05.889Z,-3
2019-02-18T02:06:56.488Z,-3
2019-02-18T02:07:57.805Z,-3.1
2019-02-18T02:08:36.351Z,-3.1
2019-02-18T02:09:26.105Z,-3.1
2019-02-18T02:10:16.471Z,-3.1
2019-02-18T02:11:06.503Z,-3.1
2019-02-18T02:11:56.553Z,-3.1
2019-02-18T02:12:46.890Z,-3.1
2019-02-18T02:13:36.972Z,-3.1
2019-02-18T02:14:27.040Z,-3.1
2019-02-18T02:15:17.128Z,-3.1
2019-02-18T02:16:06.850Z,-3.2
2019-02-18T02:16:57.220Z,-3.2
2019-02-18T02:17:46.968Z,-3.2
2019-02-18T02:18:37.298Z,-3.2
2019-02-18T02:19:27.370Z,-3.2
2019-02-18T02:20:17.150Z,-3.1
2019-02-18T02:21:06.925Z,-3.1
2019-02-18T02:21:57.260Z,-3.2
2019-02-18T02:22:47.310Z,-3.2
2019-02-18T02:23:37.369Z,-3.2
2019-02-18T02:24:27.444Z,-3.1
2019-02-18T02:25:17.757Z,-3.1
2019-02-18T02:26:07.576Z,-3.1
2019-02-18T02:26:57.610Z,-3.1
2019-02-18T02:27:47.944Z,-3.1
2019-02-18T02:28:37.447Z,-3.2
2019-02-18T02:29:27.840Z,-3.2
2019-02-18T02:30:17.907Z,-3.2
2019-02-18T02:31:08.207Z,-3.2
2019-02-18T02:31:58.328Z,-3.2
2019-02-18T02:32:48.027Z,-3.2
2019-02-18T02:33:38.093Z,-3.3
2019-02-18T02:34:28.147Z,-3.3
2019-02-18T02:35:18.477Z,-3.3
2019-02-18T02:36:08.522Z,-3.3
2019-02-18T02:36:58.299Z,-3.2
2019-02-18T02:37:48.435Z,-3.2
2019-02-18T02:38:38.152Z,-3.3
2019-02-18T02:39:28.756Z,-3.3
2019-02-18T02:40:18.261Z,-3.3
2019-02-18T02:41:08.604Z,-3.3
2019-02-18T02:41:58.367Z,-3.3
2019-02-18T02:42:48.994Z,-3.3
2019-02-18T02:43:38.763Z,-3.3
2019-02-18T02:44:29.122Z,-3.3
2019-02-18T02:45:19.154Z,-3.3
2019-02-18T02:46:09.266Z,-3.3
2019-02-18T02:46:58.729Z,-3.3
2019-02-18T02:47:49.043Z,-3.3
2019-02-18T02:48:39.110Z,-3.3
2019-02-18T02:49:29.177Z,-3.3
2019-02-18T02:50:19.533Z,-3.3
2019-02-18T02:51:09.589Z,-3.3
2019-02-18T02:51:59.625Z,-3.3
2019-02-18T02:52:49.409Z,-3.3
2019-02-18T02:53:39.735Z,-3.3
2019-02-18T02:54:29.515Z,-3.3
2019-02-18T02:55:19.836Z,-3.4
2019-02-18T02:56:09.975Z,-3.4
2019-02-18T02:56:59.953Z,-3.4
2019-02-18T02:57:50.002Z,-3.4
2019-02-18T02:58:40.088Z,-3.4
2019-02-18T02:59:29.632Z,-3.4
2019-02-18T03:00:20.042Z,-3.4
2019-02-18T03:01:10.240Z,-3.4
2019-02-18T03:01:59.814Z,-3.4
2019-02-18T03:02:49.347Z,-3.4
2019-02-18T03:03:39.939Z,-3.4
2019-02-18T03:04:29.998Z,-3.4
2019-02-18T03:08:02.689Z,-3.5
2019-02-18T03:08:52.312Z,-3.5
2019-02-18T03:09:43.071Z,-3.6
2019-02-18T03:10:32.830Z,-3.6
2019-02-18T03:11:23.185Z,-3.6
2019-02-18T03:12:12.988Z,-3.6
2019-02-18T03:13:03.049Z,-3.6
2019-02-18T03:13:53.084Z,-3.6
2019-02-18T03:14:42.889Z,-3.6
2019-02-18T03:15:33.476Z,-3.6
2019-02-18T03:16:22.974Z,-3.6
2019-02-18T03:17:13.064Z,-3.6
2019-02-18T03:18:03.651Z,-3.6
2019-02-18T03:18:53.771Z,-3.6
2019-02-18T03:19:43.484Z,-3.6
2019-02-18T03:20:33.526Z,-3.7
2019-02-18T03:21:23.601Z,-3.7
2019-02-18T03:22:13.650Z,-3.7
2019-02-18T03:25:33.913Z,-3.8
2019-02-18T03:26:23.965Z,-3.8
2019-02-18T03:27:14.018Z,-3.8
2019-02-18T03:28:04.079Z,-3.8
2019-02-18T03:28:54.123Z,-3.9
2019-02-18T03:29:44.463Z,-3.9
2019-02-18T03:30:34.269Z,-3.9
2019-02-18T03:31:24.389Z,-3.9
2019-02-18T03:32:14.686Z,-3.9
2019-02-18T03:33:04.792Z,-3.9
2019-02-18T03:33:54.543Z,-3.9
2019-02-18T03:34:44.256Z,-3.9
2019-02-18T03:35:34.604Z,-4
2019-02-18T03:36:24.628Z,-4
2019-02-18T03:37:14.984Z,-4
2019-02-18T03:38:05.050Z,-4.1
2019-02-18T03:38:54.814Z,-4.1
2019-02-18T03:39:44.889Z,-4.1
2019-02-18T03:40:35.202Z,-4
2019-02-18T03:41:25.238Z,-4.1
2019-02-18T03:42:15.366Z,-4.1
2019-02-18T03:43:05.374Z,-4.1
2019-02-18T03:43:55.157Z,-4.1
2019-02-18T03:44:45.220Z,-4.1
2019-02-18T03:45:35.557Z,-4.1
2019-02-18T03:46:25.602Z,-4.1
2019-02-18T03:47:15.451Z,-4.1
2019-02-18T03:48:05.776Z,-4.1
2019-02-18T03:48:55.786Z,-4.1
2019-02-18T03:49:45.870Z,-4.1
2019-02-18T03:50:35.928Z,-4.1
2019-02-18T03:51:25.673Z,-4.1
2019-02-18T03:52:16.012Z,-4.1
2019-02-18T03:53:05.810Z,-4.1
2019-02-18T03:53:56.115Z,-4.1
2019-02-18T03:54:46.186Z,-4.1
2019-02-18T03:55:36.010Z,-4.1
2019-02-18T03:56:26.021Z,-4.1
2019-02-18T03:57:15.794Z,-4.1
2019-02-18T03:58:06.422Z,-4.2
2019-02-18T03:58:56.189Z,-4.1
2019-02-18T03:59:46.339Z,-4.2
2019-02-18T04:00:36.301Z,-4.2
2019-02-18T04:01:26.349Z,-4.2
2019-02-18T04:02:16.443Z,-4.2
2019-02-18T04:03:06.460Z,-4.2
2019-02-18T04:03:56.543Z,-4.2
2019-02-18T04:04:46.866Z,-4.2
2019-02-18T04:05:36.653Z,-4.2
2019-02-18T04:06:26.573Z,-4.2
2019-02-18T04:07:16.769Z,-4.2
2019-02-18T04:08:06.822Z,-4.3
2019-02-18T04:08:57.185Z,-4.3
2019-02-18T04:09:46.948Z,-4.3
2019-02-18T04:10:37.300Z,-4.3
2019-02-18T04:11:27.326Z,-4.3
2019-02-18T04:12:17.121Z,-4.3
2019-02-18T04:13:07.468Z,-4.3
2019-02-18T04:13:57.525Z,-4.3
2019-02-18T04:14:47.568Z,-4.3
2019-02-18T04:15:37.640Z,-4.3
2019-02-18T04:16:27.401Z,-4.4
2019-02-18T04:17:17.198Z,-4.3
2019-02-18T04:18:07.581Z,-4.4
2019-02-18T04:18:57.565Z,-4.3
2019-02-18T04:19:47.895Z,-4.4
2019-02-18T04:20:38.013Z,-4.4
2019-02-18T04:21:27.566Z,-4.4
2019-02-18T04:22:18.075Z,-4.4
2019-02-18T04:23:07.578Z,-4.4
2019-02-18T04:23:57.367Z,-4.4
2019-02-18T04:24:48.032Z,-4.4
2019-02-18T04:25:38.409Z,-4.3
2019-02-18T04:26:28.442Z,-4.3
2019-02-18T04:27:18.145Z,-4.3
2019-02-18T04:28:08.204Z,-4.3
2019-02-18T04:28:58.279Z,-4.3
2019-02-18T04:29:48.595Z,-4.4
2019-02-18T04:30:38.417Z,-4.4
2019-02-18T04:31:28.432Z,-4.4
2019-02-18T04:32:18.769Z,-4.4
2019-02-18T04:33:08.846Z,-4.4
2019-02-18T04:33:58.892Z,-4.4
2019-02-18T04:34:48.684Z,-4.4
2019-02-18T04:35:38.989Z,-4.4
2019-02-18T04:36:29.067Z,-4.4
2019-02-18T04:37:19.159Z,-4.4
2019-02-18T04:38:08.904Z,-4.5
2019-02-18T04:38:58.958Z,-4.4
2019-02-18T04:39:49.027Z,-4.5
2019-02-18T04:40:39.365Z,-4.5
2019-02-18T04:41:29.447Z,-4.5
2019-02-18T04:42:19.478Z,-4.5
2019-02-18T04:43:09.503Z,-4.5
2019-02-18T04:43:59.615Z,-4.5
2019-02-18T04:44:49.093Z,-4.5
2019-02-18T04:45:39.188Z,-4.5
2019-02-18T04:46:29.756Z,-4.5
2019-02-18T04:47:19.546Z,-4.5
2019-02-18T04:48:09.907Z,-4.5
2019-02-18T04:48:59.935Z,-4.5
2019-02-18T04:49:49.981Z,-4.5
2019-02-18T04:50:39.776Z,-4.5
2019-02-18T04:51:30.144Z,-4.5
2019-02-18T04:52:19.883Z,-4.5
2019-02-18T04:53:10.221Z,-4.5
2019-02-18T04:54:00.262Z,-4.5
2019-02-18T04:54:50.325Z,-4.5
2019-02-18T04:55:40.101Z,-4.5
2019-02-18T04:56:30.445Z,-4.5
2019-02-18T04:57:20.510Z,-4.5
2019-02-18T04:58:10.576Z,-4.5
2019-02-18T04:59:00.365Z,-4.5
2019-02-18T04:59:50.723Z,-4.5
2019-02-18T05:00:40.505Z,-4.4
2019-02-18T05:01:30.808Z,-4.5
2019-02-18T05:02:20.860Z,-4.4
2019-02-18T05:03:10.650Z,-4.4
2019-02-18T05:04:01.061Z,-4.4
2019-02-18T05:04:50.798Z,-4.4
2019-02-18T05:05:41.098Z,-4.4
2019-02-18T05:06:31.137Z,-4.4
2019-02-18T05:07:21.192Z,-4.4
2019-02-18T05:08:11.260Z,-4.4
2019-02-18T05:09:07.634Z,-4.4
2019-02-18T05:09:51.367Z,-4.4
2019-02-18T05:10:41.443Z,-4.4
2019-02-18T05:11:31.200Z,-4.4
2019-02-18T05:12:21.259Z,-4.4
2019-02-18T05:13:11.329Z,-4.4
2019-02-18T05:14:01.422Z,-4.4
2019-02-18T05:14:51.712Z,-4.4
2019-02-18T05:15:42.439Z,-4.4
2019-02-18T05:16:31.563Z,-4.4
2019-02-18T05:17:21.590Z,-4.4
2019-02-18T05:18:11.655Z,-4.4
2019-02-18T05:19:02.007Z,-4.4
2019-02-18T05:19:51.523Z,-4.4
2019-02-18T05:20:42.143Z,-4.4
2019-02-18T05:21:31.908Z,-4.4
2019-02-18T05:22:21.950Z,-4.4
2019-02-18T05:23:12.288Z,-4.4
2019-02-18T05:24:02.350Z,-4.4
2019-02-18T05:24:52.398Z,-4.4
2019-02-18T05:25:42.197Z,-4.4
2019-02-18T05:26:31.959Z,-4.4
2019-02-18T05:27:33.758Z,-4.4
2019-02-18T05:28:12.621Z,-4.4
2019-02-18T05:29:02.758Z,-4.4
2019-02-18T05:29:52.746Z,-4.4
2019-02-18T05:30:42.885Z,-4.4
2019-02-18T05:31:32.857Z,-4.4
2019-02-18T05:32:22.384Z,-4.4
2019-02-18T05:33:12.993Z,-4.3
2019-02-18T05:34:03.121Z,-4.3
2019-02-18T05:34:53.089Z,-4.4
2019-02-18T05:35:42.596Z,-4.4
2019-02-18T05:36:32.940Z,-4.4
2019-02-18T05:37:23.090Z,-4.4
2019-02-18T05:38:13.334Z,-4.4
2019-02-18T05:39:02.552Z,-4.4
2019-02-18T05:39:55.733Z,-4.4
2019-02-18T05:40:43.246Z,-4.4
2019-02-18T05:41:33.644Z,-4.3
2019-02-18T05:42:23.626Z,-4.4
2019-02-18T05:43:13.661Z,-4.4
2019-02-18T05:44:03.190Z,-4.3
2019-02-18T05:44:53.779Z,-4.3
2019-02-18T05:45:43.597Z,-4.3
2019-02-18T05:46:33.881Z,-4.3
2019-02-18T05:47:23.678Z,-4.3
2019-02-18T05:48:14.049Z,-4.3
2019-02-18T05:49:03.545Z,-4.3
2019-02-18T05:49:54.212Z,-4.3
2019-02-18T05:50:44.181Z,-4.2
2019-02-18T05:51:34.239Z,-4.2
2019-02-18T05:52:23.753Z,-4.1
2019-02-18T05:53:13.804Z,-4.1
2019-02-18T05:54:03.863Z,-4.1
2019-02-18T05:54:54.186Z,-4.1
2019-02-18T05:55:44.260Z,-4
2019-02-18T05:56:34.573Z,-4
2019-02-18T05:57:25.135Z,-3.9
2019-02-18T05:58:14.703Z,-3.9
2019-02-18T05:59:04.811Z,-3.9
2019-02-18T05:59:54.536Z,-3.8
2019-02-18T06:01:34.665Z,-3.7
2019-02-18T06:02:25.005Z,-3.7
2019-02-18T06:03:14.508Z,-3.6
2019-02-18T06:04:05.121Z,-3.6
2019-02-18T06:06:02.805Z,-3.4
2019-02-18T06:06:52.853Z,-3.4
2019-02-18T06:07:42.966Z,-3.3
2019-02-18T06:08:32.143Z,-3.3
2019-02-18T06:09:31.820Z,-3.1
2019-02-18T06:10:17.597Z,-3.1
2019-02-18T06:11:02.848Z,-3
2019-02-18T06:11:53.187Z,-2.9
2019-02-18T06:12:42.995Z,-2.9
2019-02-18T06:13:32.747Z,-2.8
2019-02-18T06:14:23.401Z,-2.7
2019-02-18T06:15:12.911Z,-2.6
2019-02-18T06:16:03.464Z,-2.4
2019-02-18T06:16:53.584Z,-2.3
2019-02-18T06:17:43.807Z,-2.1
2019-02-18T06:18:33.901Z,-2
2019-02-18T06:19:23.699Z,-1.8
2019-02-18T06:20:13.524Z,-1.6
2019-02-18T06:21:03.549Z,-1.4
2019-02-18T06:21:53.882Z,-1.3
2019-02-18T06:22:44.205Z,-1
2019-02-18T06:23:48.649Z,-0.7
2019-02-18T06:24:23.826Z,-0.4
2019-02-18T06:25:14.088Z,-0.1
2019-02-18T06:26:03.943Z,0.4
2019-02-18T06:26:54.204Z,0.8
2019-02-18T06:27:44.030Z,1.3
2019-02-18T06:28:34.392Z,2
2019-02-18T06:29:24.407Z,2.4
2019-02-18T06:30:14.456Z,3.1
2019-02-18T06:31:04.532Z,3.6
2019-02-18T06:31:54.281Z,4.3
2019-02-18T06:32:44.356Z,4.8
2019-02-18T06:33:34.460Z,5.5
2019-02-18T06:34:24.770Z,6.1
2019-02-18T06:35:14.597Z,6.6
2019-02-18T06:36:04.595Z,7.2
2019-02-18T06:36:54.676Z,7.8
2019-02-18T06:37:44.726Z,8.3
2019-02-18T06:38:34.471Z,8.9
2019-02-18T06:39:25.165Z,9.4
2019-02-18T06:40:15.260Z,10.1
2019-02-18T06:41:05.028Z,10.5
2019-02-18T06:41:54.965Z,11
2019-02-18T06:42:45.005Z,11.5
2019-02-18T06:43:35.370Z,12.1
2019-02-18T06:44:25.162Z,12.6
2019-02-18T06:45:15.482Z,13.1
2019-02-18T06:46:05.261Z,13.7
2019-02-18T06:46:55.587Z,14.3
2019-02-18T06:47:45.107Z,14.8
2019-02-18T06:48:35.947Z,15.4
2019-02-18T06:49:25.507Z,15.9
2019-02-18T06:50:15.639Z,16.4
2019-02-18T06:51:05.617Z,16.9
2019-02-18T06:51:55.954Z,17.5
2019-02-18T06:52:45.470Z,18.2
2019-02-18T06:53:36.057Z,18.5
2019-02-18T06:54:40.794Z,19.1
2019-02-18T06:55:15.910Z,19.8
2019-02-18T06:56:06.229Z,20.1
2019-02-18T06:56:56.014Z,20.6
2019-02-18T06:57:46.351Z,21.2
2019-02-18T06:58:36.128Z,21.8
2019-02-18T06:59:26.180Z,22.2
2019-02-18T07:00:16.572Z,22.7
2019-02-18T07:01:06.034Z,23.2
2019-02-18T07:01:56.084Z,23.7
2019-02-18T07:02:46.757Z,24.2
2019-02-18T07:03:36.219Z,24.8
2019-02-18T07:06:02.477Z,26.1
2019-02-18T07:06:52.509Z,26.8
2019-02-18T07:07:42.314Z,27.4
2019-02-18T07:09:22.923Z,28.4
2019-02-18T07:10:12.211Z,28.9
2019-02-18T07:11:03.086Z,29.4
2019-02-18T07:11:52.859Z,29.9
2019-02-18T07:12:43.196Z,30.4
2019-02-18T07:13:33.256Z,30.9
2019-02-18T07:14:23.047Z,31.4
2019-02-18T07:15:13.370Z,31.8
2019-02-18T07:16:03.433Z,32.3
2019-02-18T07:16:53.463Z,32.7
2019-02-18T07:17:43.255Z,33.1
2019-02-18T07:18:33.583Z,33.6
2019-02-18T07:20:13.447Z,34.7
2019-02-18T07:21:03.502Z,34.8
2019-02-18T07:21:53.829Z,35.3
2019-02-18T07:22:43.883Z,35.8
2019-02-18T07:23:33.685Z,36.3
2019-02-18T07:24:24.008Z,36.7
2019-02-18T07:25:14.069Z,37.2
2019-02-18T07:26:04.112Z,37.6
2019-02-18T07:26:54.167Z,38.1
2019-02-18T07:27:44.238Z,38.6
2019-02-18T07:28:33.760Z,39.1
2019-02-18T07:29:24.340Z,39.5
2019-02-18T07:30:14.119Z,40
2019-02-18T07:31:04.187Z,40.4
2019-02-18T07:31:54.239Z,40.9
2019-02-18T07:32:44.312Z,41.4
2019-02-18T07:33:34.106Z,41.8
2019-02-18T07:34:24.585Z,42.3
2019-02-18T07:35:14.828Z,42.7
2019-02-18T07:36:04.813Z,43.1
2019-02-18T07:36:54.920Z,43.6
2019-02-18T07:37:59.307Z,44
2019-02-18T07:38:34.424Z,44.5
2019-02-18T07:39:24.815Z,44.8
2019-02-18T07:40:15.319Z,45.3
2019-02-18T07:41:05.149Z,45.7
2019-02-18T07:41:54.926Z,46.1
2019-02-18T07:42:45.269Z,46.5
2019-02-18T07:43:35.341Z,47.3
2019-02-18T07:44:25.104Z,48.9
2019-02-18T07:45:15.448Z,48.6
2019-02-18T07:46:05.496Z,47.2
2019-02-18T07:46:55.356Z,45.1
2019-02-18T07:47:45.339Z,41.4
2019-02-18T07:48:38.069Z,38.8
2019-02-18T07:49:25.739Z,37.2
2019-02-18T07:50:23.097Z,36.3
2019-02-18T07:51:09.046Z,35.5
2019-02-18T07:51:55.906Z,35.2
2019-02-18T07:52:45.410Z,35.1
2019-02-18T07:53:35.738Z,35.1
2019-02-18T07:54:25.817Z,35.4
2019-02-18T07:55:16.138Z,35.8
2019-02-18T07:56:06.203Z,36.4
2019-02-18T07:56:55.970Z,37.1
2019-02-18T07:57:46.308Z,37.8
2019-02-18T07:58:36.358Z,38.6
2019-02-18T07:59:25.891Z,39.4
2019-02-18T08:00:16.474Z,40.2
2019-02-18T08:01:06.266Z,41
2019-02-18T08:01:56.620Z,41.8
2019-02-18T08:02:46.694Z,42.6
2019-02-18T08:03:36.455Z,43.4
2019-02-18T08:04:26.755Z,44.1
2019-02-18T08:05:16.567Z,44.9
2019-02-18T08:06:06.328Z,45.6
2019-02-18T08:06:56.660Z,46.3
2019-02-18T08:07:47.002Z,48.2
2019-02-18T08:08:36.301Z,48.9
2019-02-18T08:09:27.130Z,48.3
2019-02-18T08:10:17.163Z,47.1
2019-02-18T08:11:06.955Z,45.3
2019-02-18T08:11:57.282Z,43.3
2019-02-18T08:12:46.800Z,41.6
2019-02-18T08:13:37.411Z,40.8
2019-02-18T08:14:27.210Z,40.4
2019-02-18T08:15:17.257Z,40.4
2019-02-18T08:16:07.033Z,40.6
2019-02-18T08:16:57.650Z,41
2019-02-18T08:17:47.694Z,41.6
2019-02-18T08:18:37.767Z,42.3
2019-02-18T08:19:27.528Z,43.1
2019-02-18T08:20:17.866Z,44
2019-02-18T08:21:07.357Z,44.9
2019-02-18T08:21:57.724Z,45.7
2019-02-18T08:22:48.039Z,46.9
2019-02-18T08:23:38.079Z,49.1
2019-02-18T08:24:27.612Z,49.6
2019-02-18T08:25:17.945Z,49.9
2019-02-18T08:26:08.304Z,49.5
2019-02-18T08:26:58.338Z,48.2
2019-02-18T08:27:48.098Z,46.4
2019-02-18T08:28:38.493Z,45.1
2019-02-18T08:29:28.222Z,45
2019-02-18T08:30:18.301Z,45.8
2019-02-18T08:31:08.334Z,46.8
2019-02-18T08:31:58.385Z,47.4
2019-02-18T08:32:48.456Z,47.7
2019-02-18T08:33:38.801Z,47.6
2019-02-18T08:34:28.843Z,47.2
2019-02-18T08:35:18.890Z,46.8
2019-02-18T08:36:08.690Z,46.6
2019-02-18T08:36:58.750Z,46.6
2019-02-18T08:37:48.874Z,46.8
2019-02-18T08:38:38.925Z,47.1
2019-02-18T08:39:29.206Z,47.3
2019-02-18T08:40:24.591Z,47.3
2019-02-18T08:41:09.023Z,47.4
2019-02-18T08:41:59.097Z,47.3
2019-02-18T08:42:49.152Z,47.3
2019-02-18T08:43:39.221Z,47.3
2019-02-18T08:44:29.254Z,47.4
2019-02-18T08:45:19.330Z,47.6
2019-02-18T08:46:09.665Z,47.8
2019-02-18T08:46:59.172Z,48
2019-02-18T08:47:49.218Z,48.1
2019-02-18T08:48:39.841Z,48.3
2019-02-18T08:49:29.885Z,48.4
2019-02-18T08:50:19.930Z,48.6
2019-02-18T08:51:09.734Z,48.6
2019-02-18T08:51:59.225Z,48.8
2019-02-18T08:52:49.561Z,48.9
2019-02-18T08:53:39.903Z,49.1
2019-02-18T08:54:29.480Z,49.3
2019-02-18T08:55:20.010Z,49.4
2019-02-18T08:56:10.349Z,49.6
2019-02-18T08:57:00.134Z,49.8
2019-02-18T08:57:50.462Z,50
2019-02-18T08:58:40.517Z,50.2
2019-02-18T08:59:30.023Z,50.4
2019-02-18T09:00:20.359Z,50.7
2019-02-18T09:01:10.687Z,50.9
2019-02-18T09:02:00.479Z,51.1
2019-02-18T09:02:50.841Z,51.2
2019-02-18T09:03:40.634Z,51.2
2019-02-18T09:04:30.934Z,51.3
2019-02-18T09:05:21.255Z,51.3
2019-02-18T09:06:10.487Z,51.3
2019-02-18T09:07:01.089Z,51.3
2019-02-18T09:07:50.881Z,51.3
2019-02-18T09:08:41.004Z,51.4
2019-02-18T09:09:30.989Z,51.4
2019-02-18T09:10:21.091Z,51.5
2019-02-18T09:11:11.389Z,51.6
2019-02-18T09:12:01.162Z,51.8
2019-02-18T09:12:51.248Z,52
2019-02-18T09:13:41.336Z,52.3
2019-02-18T09:14:31.335Z,52.5
2019-02-18T09:15:21.678Z,52.8
2019-02-18T09:16:11.711Z,52.9
2019-02-18T09:17:01.796Z,53.1
2019-02-18T09:17:51.903Z,53.3
2019-02-18T09:18:41.243Z,53.5
2019-02-18T09:19:31.479Z,53.6
2019-02-18T09:20:22.012Z,53.8
2019-02-18T09:21:11.541Z,54
2019-02-18T09:22:01.858Z,54.2
2019-02-18T09:22:51.730Z,54.3
2019-02-18T09:23:42.262Z,54.5
2019-02-18T09:24:32.033Z,54.6
2019-02-18T09:25:22.368Z,54.7
2019-02-18T09:26:11.940Z,54.8
2019-02-18T09:27:01.779Z,54.9
2019-02-18T09:27:52.555Z,55.1
2019-02-18T09:28:42.373Z,55.3
2019-02-18T09:29:32.375Z,55.4
2019-02-18T09:30:21.973Z,55.6
2019-02-18T09:31:12.288Z,55.7
2019-02-18T09:32:02.060Z,55.9
2019-02-18T09:32:52.132Z,56.1
2019-02-18T09:33:42.477Z,56.2
2019-02-18T09:34:32.557Z,56.4
2019-02-18T09:35:22.359Z,56.6
2019-02-18T09:36:12.092Z,56.7
2019-02-18T09:37:02.160Z,56.9
2019-02-18T09:37:52.759Z,57
2019-02-18T09:38:42.797Z,57.1
2019-02-18T09:39:33.064Z,57.3
2019-02-18T09:40:22.394Z,57.4
2019-02-18T09:41:12.447Z,57.5
2019-02-18T09:42:03.062Z,57.6
2019-02-18T09:43:42.872Z,57.9
2019-02-18T09:44:32.939Z,58
2019-02-18T09:45:23.332Z,58.1
2019-02-18T09:46:13.315Z,58.2
2019-02-18T09:47:03.603Z,58.3
2019-02-18T09:47:55.927Z,58.4
2019-02-18T09:48:43.236Z,58.5
2019-02-18T09:49:33.556Z,58.6
2019-02-18T09:50:24.099Z,58.8
2019-02-18T09:51:13.664Z,58.8
2019-02-18T09:52:03.196Z,58.9
2019-02-18T09:52:53.498Z,59.1
2019-02-18T09:53:44.331Z,59.2
2019-02-18T09:54:34.404Z,59.3
2019-02-18T09:55:23.878Z,59.4
2019-02-18T09:56:14.051Z,59.5
2019-02-18T09:57:04.549Z,59.6
2019-02-18T09:57:54.131Z,59.6
2019-02-18T09:58:44.731Z,59.6
2019-02-18T09:59:34.723Z,59.6
2019-02-18T10:00:24.783Z,59.6
2019-02-18T10:01:14.850Z,59.6
2019-02-18T10:02:04.909Z,59.6
2019-02-18T10:02:54.413Z,59.6
2019-02-18T10:03:44.756Z,59.7
2019-02-18T10:04:35.098Z,59.7
2019-02-18T10:07:02.593Z,59.8
2019-02-18T10:07:51.828Z,59.8
2019-02-18T10:08:42.431Z,59.7
2019-02-18T10:09:32.750Z,59.6
2019-02-18T10:10:22.898Z,59.6
2019-02-18T10:11:12.862Z,59.5
2019-02-18T10:12:02.708Z,59.4
2019-02-18T10:12:52.977Z,59.5
2019-02-18T10:13:43.041Z,59.6
2019-02-18T10:14:32.822Z,59.7
2019-02-18T10:15:23.180Z,59.8
2019-02-18T10:16:12.944Z,60
2019-02-18T10:17:03.262Z,60.1
2019-02-18T10:17:53.327Z,60.3
2019-02-18T10:18:43.382Z,60.4
2019-02-18T10:19:32.966Z,60.5
2019-02-18T10:20:23.494Z,60.7
2019-02-18T10:21:13.569Z,60.8
2019-02-18T10:22:03.082Z,61
2019-02-18T10:22:53.662Z,61.1
2019-02-18T10:23:43.732Z,61.3
2019-02-18T10:24:33.507Z,61.4
2019-02-18T10:25:23.861Z,61.4
2019-02-18T10:26:13.634Z,61.4
2019-02-18T10:27:03.531Z,61.5
2019-02-18T10:27:54.007Z,61.6
2019-02-18T10:28:44.070Z,61.6
2019-02-18T10:29:34.126Z,61.6
2019-02-18T10:30:24.184Z,61.7
2019-02-18T10:31:13.999Z,61.7
2019-02-18T10:32:04.027Z,61.8
2019-02-18T10:32:54.361Z,61.8
2019-02-18T10:33:43.608Z,61.9
2019-02-18T10:34:34.284Z,61.9
2019-02-18T10:35:26.284Z,62
2019-02-18T10:36:14.584Z,62
2019-02-18T10:37:04.658Z,62
2019-02-18T10:37:57.347Z,62
2019-02-18T10:38:44.772Z,62
2019-02-18T10:39:34.589Z,62.1
2019-02-18T10:40:24.613Z,62.1
2019-02-18T10:41:14.666Z,62.1
2019-02-18T10:42:04.723Z,62.2
2019-02-18T10:42:55.066Z,62.3
2019-02-18T10:43:45.145Z,62.3
2019-02-18T10:44:34.658Z,62.4
2019-02-18T10:45:25.245Z,62.5
2019-02-18T10:46:15.303Z,62.6
2019-02-18T10:47:05.943Z,62.6
2019-02-18T10:47:55.444Z,62.8
2019-02-18T10:48:45.203Z,62.8
2019-02-18T10:49:35.540Z,62.8
2019-02-18T10:50:25.607Z,62.9
2019-02-18T10:51:15.416Z,63
2019-02-18T10:52:05.488Z,63
2019-02-18T10:52:56.132Z,63.1
2019-02-18T10:53:45.895Z,63.1
2019-02-18T10:54:35.925Z,63.1
2019-02-18T10:55:25.703Z,63.1
2019-02-18T10:56:16.508Z,63.2
2019-02-18T10:57:05.788Z,63.2
2019-02-18T10:57:56.134Z,63.2
2019-02-18T10:58:45.635Z,63.1
2019-02-18T10:59:35.952Z,63.1
2019-02-18T11:00:26.027Z,63
2019-02-18T11:01:16.072Z,63
2019-02-18T11:02:06.822Z,63.1
2019-02-18T11:02:56.182Z,63.1
2019-02-18T11:03:46.254Z,63.1
2019-02-18T11:04:36.312Z,63.1
2019-02-18T11:05:27.056Z,63.1
2019-02-18T11:06:16.441Z,63.1
2019-02-18T11:07:06.490Z,63.1
2019-02-18T11:07:56.589Z,63.1
2019-02-18T11:08:46.866Z,63.1
2019-02-18T11:09:36.907Z,63.2
2019-02-18T11:10:26.971Z,63.3
2019-02-18T11:11:19.241Z,63.3
2019-02-18T11:12:06.554Z,63.3
2019-02-18T11:12:57.624Z,63.3
2019-02-18T11:13:46.991Z,63.3
2019-02-18T11:14:37.016Z,63.4
2019-02-18T11:15:27.064Z,63.4
2019-02-18T11:16:17.121Z,63.4
2019-02-18T11:17:07.204Z,63.4
2019-02-18T11:17:57.495Z,63.4
2019-02-18T11:18:47.585Z,63.4
2019-02-18T11:19:37.442Z,63.4
2019-02-18T11:20:27.701Z,63.5
2019-02-18T11:21:17.743Z,63.5